Strona główna
METAR-TAF:

METAR-TAF

Lotnisko :

Port lotniczy Sliač

Bańska Bystrzyca, Słowacja

Szerokość geograficzna: 48-38-17N, Długość geograficzna: 019-08-03E, wysokość: 318 m

METAR: brakujący

czas: 10:35 (08:35 UTC)

Prognoza

Raport powstał 1 godzina i 5 minut temu, godzina 07:30 UTC
Prognoza ważna od 23 godzina 09 UTC do 23 godzina 18 UTC
Wiatr 4 kt od wschód
Widzialność 10 km lub więcej
Rozproszone chmury na wysokości 3500 ft
Przerywane chmury na wysokości 10000 ft
Przejściowo
od 23 godzina 10 UTC do 23 godzina 16 UTC
Wiatr 6 kt od południowo-południowy zachód
Prawdopodobieństwo 30% :
Przejściowo
od 23 godzina 12 UTC do 23 godzina 16 UTC
Mało chmury na wysokości 3500 ft, Cumulusy wypiętrznone.
Przerywane chmury na wysokości 4000 ft
słaby przelotny opad deszczu,

TAF: LZSL 230730Z 2309/2318 08004KT 9999 SCT035 BKN100 TEMPO 2310/2316 20006KT PROB30 TEMPO 2312/2316 -SHRA FEW035TCU BKN040

Obserwacja i prognoza pogody dla ponad 4000 lotnisk (raport METAR i TAF).

Dostępne stacje oznaczono żółtymi i czerwonymi punktami na mapie.

Najedź kursorem aby zobaczyć nazwę stacji.

Kliknij aby zobaczyć obserwacje i prognozy pogody.

Aby zmienić mapę: kliknij na zielony przycisk z czarnym krzyżykiem, aby powiększyć; na zielony przycisk z myślnikiem, aby pomniejszyć; na zielone strzałki, aby przejść do map sąsiednich.


METAR-TAF: